Time;durP1;ratioP1;P1;durP2;ratioP2;P2;SDS_P1;SDS_P2;PMS_P1;PMS_P2;Temp;Humidity;BMP_temperature;BMP_pressure;BME280_temperature;BME280_humidity;BME280_pressure;Samples;Min_cycle;Max_cycle;Signal;HPM_P1;HPM_P2
2021/06/24 00:01:51;;;;;;;4.93;2.30;;;;;;;15.32;100.00;96331.69;5037244;28;20036;-79
2021/06/24 00:04:17;;;;;;;4.63;2.60;;;;;;;15.35;100.00;96324.38;5033285;28;20778;-80
2021/06/24 00:06:44;;;;;;;5.07;2.87;;;;;;;15.38;100.00;96331.94;5053244;28;20055;-81
2021/06/24 00:09:10;;;;;;;7.22;4.03;;;;;;;15.30;100.00;96343.47;5052028;28;20032;-79
2021/06/24 00:11:35;;;;;;;10.15;4.38;;;;;;;15.41;100.00;96350.94;5035114;28;20378;-79
2021/06/24 00:14:01;;;;;;;7.53;4.13;;;;;;;15.16;100.00;96362.88;5054656;28;20028;-78
2021/06/24 00:16:27;;;;;;;5.47;2.97;;;;;;;15.13;100.00;96376.50;5030532;28;20433;-79
2021/06/24 00:18:54;;;;;;;6.00;3.15;;;;;;;15.13;100.00;96385.25;5050882;28;20095;-80
2021/06/24 00:21:20;;;;;;;5.43;2.83;;;;;;;15.15;100.00;96380.56;5047499;28;20029;-79
2021/06/24 00:23:45;;;;;;;5.27;2.77;;;;;;;15.08;100.00;96380.47;5049370;28;20047;-79
2021/06/24 00:26:11;;;;;;;4.33;2.63;;;;;;;15.09;100.00;96374.19;5050672;28;20411;-79
2021/06/24 00:28:38;;;;;;;4.37;2.43;;;;;;;15.16;100.00;96369.00;5049923;28;20032;-79
2021/06/24 00:31:04;;;;;;;4.83;2.70;;;;;;;15.23;100.00;96359.28;5042277;28;20037;-78
2021/06/24 00:33:30;;;;;;;5.78;2.45;;;;;;;15.29;100.00;96358.56;5047429;28;20071;-79
2021/06/24 00:35:56;;;;;;;5.13;2.97;;;;;;;15.42;100.00;96346.44;5047256;28;20024;-79
2021/06/24 00:38:22;;;;;;;5.15;2.95;;;;;;;15.44;100.00;96353.22;5046663;28;20422;-79
2021/06/24 00:40:48;;;;;;;7.68;3.95;;;;;;;15.35;100.00;96348.22;5043572;28;20028;-78
2021/06/24 00:43:17;;;;;;;8.63;5.47;;;;;;;15.28;100.00;96353.44;5029246;28;20448;-78
2021/06/24 00:45:44;;;;;;;12.38;7.05;;;;;;;15.26;100.00;96358.94;5046835;28;20027;-79
2021/06/24 00:48:11;;;;;;;7.75;4.70;;;;;;;15.28;100.00;96362.19;5046487;28;20081;-79
2021/06/24 00:50:39;;;;;;;8.73;3.17;;;;;;;15.21;100.00;96365.78;5062319;28;20044;-79
2021/06/24 00:53:05;;;;;;;4.50;2.83;;;;;;;15.25;100.00;96362.56;5045765;28;20032;-78
2021/06/24 00:55:44;;;;;;;4.97;3.03;;;;;;;15.25;100.00;96373.16;5045834;28;20039;-79
2021/06/24 00:58:13;;;;;;;6.72;3.15;;;;;;;15.37;100.00;96375.34;5042508;28;20060;-79
2021/06/24 01:00:41;;;;;;;5.25;2.80;;;;;;;15.40;100.00;96381.09;5043460;28;20372;-78
2021/06/24 01:03:07;;;;;;;6.38;2.90;;;;;;;15.47;100.00;96387.31;5045488;28;20098;-79
2021/06/24 01:05:35;;;;;;;8.35;4.35;;;;;;;15.53;100.00;96388.41;5044964;28;20745;-79
2021/06/24 01:08:02;;;;;;;12.70;6.68;;;;;;;15.44;100.00;96400.91;5045392;28;20048;-78
2021/06/24 01:10:30;;;;;;;11.15;7.55;;;;;;;15.26;100.00;96401.31;5045241;28;20442;-79
2021/06/24 01:12:58;;;;;;;8.07;4.53;;;;;;;15.22;100.00;96417.75;5046246;28;20033;-79
2021/06/24 01:15:24;;;;;;;7.57;3.65;;;;;;;15.29;100.00;96423.94;5028694;28;20074;-79
2021/06/24 01:17:50;;;;;;;11.48;5.18;;;;;;;15.28;100.00;96424.97;5044722;28;20075;-78
2021/06/24 01:20:21;;;;;;;9.40;5.70;;;;;;;15.27;100.00;96432.09;5045692;28;20665;-78
2021/06/24 01:22:47;;;;;;;10.52;6.53;;;;;;;15.25;100.00;96423.50;5044606;28;20031;-79
2021/06/24 01:25:14;;;;;;;8.88;6.38;;;;;;;15.21;100.00;96426.72;5044498;28;21492;-80
2021/06/24 01:27:40;;;;;;;9.93;7.13;;;;;;;15.26;100.00;96429.66;5044936;28;20032;-78
2021/06/24 01:30:08;;;;;;;9.40;6.53;;;;;;;15.19;100.00;96432.22;5044880;28;20781;-79
2021/06/24 01:32:36;;;;;;;9.60;5.75;;;;;;;15.23;100.00;96422.88;5045209;28;20029;-79
2021/06/24 01:35:04;;;;;;;8.18;5.53;;;;;;;15.19;100.00;96424.25;5027946;28;20025;-79
2021/06/24 01:37:30;;;;;;;8.63;5.55;;;;;;;15.21;100.00;96427.53;5044652;28;20075;-80
2021/06/24 01:39:56;;;;;;;8.27;4.57;;;;;;;15.22;100.00;96429.16;5044202;28;20017;-78
2021/06/24 01:42:27;;;;;;;8.07;4.80;;;;;;;15.22;100.00;96420.41;5043866;28;20032;-78
2021/06/24 01:44:53;;;;;;;6.43;4.28;;;;;;;15.22;100.00;96431.81;5045355;28;20506;-79
2021/06/24 01:47:21;;;;;;;6.25;4.28;;;;;;;15.14;100.00;96420.50;5047728;28;20021;-79
2021/06/24 01:49:46;;;;;;;7.95;4.03;;;;;;;15.15;100.00;96422.97;5046346;28;20226;-79
2021/06/24 01:52:13;;;;;;;7.00;4.10;;;;;;;15.13;100.00;96414.38;5047979;28;20021;-79
2021/06/24 01:54:47;;;;;;;7.13;3.88;;;;;;;15.11;100.00;96407.63;5048163;28;20036;-79
2021/06/24 01:57:17;;;;;;;6.05;3.60;;;;;;;15.06;100.00;96406.34;5031882;28;20064;-79
2021/06/24 01:59:45;;;;;;;5.32;3.65;;;;;;;15.16;100.00;96400.78;5046727;28;20035;-79
2021/06/24 02:02:14;;;;;;;11.53;3.87;;;;;;;15.16;100.00;96403.44;5051939;28;20036;-79
2021/06/24 02:04:52;;;;;;;5.75;2.72;;;;;;;15.14;100.00;96402.78;5053343;28;20797;-79
2021/06/24 02:07:33;;;;;;;4.32;2.63;;;;;;;15.13;100.00;96402.97;5068267;28;20516;-79
2021/06/24 02:10:20;;;;;;;10.35;3.30;;;;;;;15.07;100.00;96401.88;5062670;28;20033;-79
2021/06/24 02:12:54;;;;;;;4.27;3.07;;;;;;;15.04;100.00;96397.75;5058087;28;20040;-79
2021/06/24 02:15:20;;;;;;;4.75;2.58;;;;;;;15.01;100.00;96390.16;5051759;28;20499;-79
2021/06/24 02:17:47;;;;;;;4.07;2.70;;;;;;;15.12;100.00;96382.78;5050323;28;20021;-79
2021/06/24 02:20:15;;;;;;;8.13;3.17;;;;;;;15.13;100.00;96385.25;5051378;28;20106;-79
2021/06/24 02:22:49;;;;;;;5.80;3.53;;;;;;;15.05;100.00;96378.19;5037974;28;20100;-79
2021/06/24 02:25:18;;;;;;;7.50;3.10;;;;;;;15.02;100.00;96375.94;5041991;28;20035;-79
2021/06/24 02:28:20;;;;;;;4.40;3.08;;;;;;;15.05;100.00;96370.25;5023786;28;20034;-79
2021/06/24 02:31:04;;;;;;;5.57;2.97;;;;;;;15.01;100.00;96371.63;5039846;28;20168;-79
2021/06/24 02:33:31;;;;;;;5.25;2.90;;;;;;;14.98;100.00;96372.00;5056473;28;20033;-79
2021/06/24 02:36:10;;;;;;;5.95;2.83;;;;;;;15.00;100.00;96371.84;5053219;28;20701;-79
2021/06/24 02:38:37;;;;;;;3.83;2.70;;;;;;;15.05;100.00;96366.78;5052558;28;20036;-79
2021/06/24 02:41:03;;;;;;;4.80;2.90;;;;;;;14.95;100.00;96364.41;5052583;28;20505;-79
2021/06/24 02:43:29;;;;;;;3.58;2.63;;;;;;;14.94;100.00;96354.84;5048303;28;20155;-79
2021/06/24 02:45:57;;;;;;;4.90;3.25;;;;;;;14.94;100.00;96354.03;5051977;28;20028;-79
2021/06/24 02:48:28;;;;;;;5.70;2.70;;;;;;;15.00;100.00;96345.34;5053031;28;20116;-79
2021/06/24 02:50:54;;;;;;;4.97;2.55;;;;;;;15.07;100.00;96352.38;5036162;28;20037;-79
2021/06/24 02:53:20;;;;;;;5.13;3.22;;;;;;;15.12;100.00;96349.16;5052520;28;20099;-79
2021/06/24 02:55:47;;;;;;;5.37;3.03;;;;;;;15.07;100.00;96351.53;5051259;28;20033;-78
2021/06/24 02:58:17;;;;;;;4.78;3.20;;;;;;;14.96;100.00;96347.53;5052994;28;20378;-79
2021/06/24 03:01:00;;;;;;;4.07;2.75;;;;;;;14.93;100.00;96355.03;5038746;28;20040;-79
2021/06/24 03:03:44;;;;;;;5.57;3.08;;;;;;;14.94;100.00;96354.03;5048838;28;20044;-78
2021/06/24 03:06:29;;;;;;;4.75;3.05;;;;;;;14.95;100.00;96350.34;5048136;28;20029;-79
2021/06/24 03:08:56;;;;;;;4.82;2.90;;;;;;;14.90;100.00;96352.75;5046616;28;20136;-79
2021/06/24 03:11:24;;;;;;;5.65;3.20;;;;;;;14.91;100.00;96351.75;5043352;28;20018;-79
2021/06/24 03:13:54;;;;;;;6.43;3.92;;;;;;;14.85;100.00;96348.84;5062749;28;20087;-78
2021/06/24 03:16:35;;;;;;;4.00;2.90;;;;;;;14.81;100.00;96350.19;5046949;28;20492;-79
2021/06/24 03:19:02;;;;;;;5.43;3.08;;;;;;;14.74;100.00;96357.22;5046703;28;20112;-78
2021/06/24 03:21:29;;;;;;;6.53;3.83;;;;;;;14.70;100.00;96355.13;5047175;28;20013;-79
2021/06/24 03:23:55;;;;;;;5.72;3.22;;;;;;;14.74;100.00;96362.50;5047183;28;20040;-78
2021/06/24 03:26:21;;;;;;;7.22;3.33;;;;;;;14.73;100.00;96352.94;5047659;28;20446;-78
2021/06/24 03:28:57;;;;;;;6.90;3.70;;;;;;;14.84;100.00;96349.81;5046502;28;20115;-78
2021/06/24 03:31:28;;;;;;;5.35;3.28;;;;;;;14.82;100.00;96341.25;5046828;28;20162;-80
2021/06/24 03:33:54;;;;;;;6.47;3.80;;;;;;;14.90;100.00;96336.88;5047043;28;20037;-79
2021/06/24 03:36:21;;;;;;;5.28;3.13;;;;;;;14.93;100.00;96325.91;5030625;28;20051;-79
2021/06/24 03:38:48;;;;;;;6.75;3.58;;;;;;;14.98;100.00;96323.50;5045260;28;20031;-79
2021/06/24 03:41:24;;;;;;;5.95;3.50;;;;;;;14.98;100.00;96323.50;5048340;28;20123;-79
2021/06/24 03:43:54;;;;;;;6.93;3.33;;;;;;;14.93;100.00;96317.97;5049075;28;20151;-79
2021/06/24 03:46:20;;;;;;;6.03;3.65;;;;;;;14.92;100.00;96321.59;5043684;28;20053;-78
2021/06/24 03:48:47;;;;;;;275.58;15.48;;;;;;;14.71;100.00;96325.00;5047400;28;20029;-78
2021/06/24 03:51:18;;;;;;;75.40;6.57;;;;;;;14.60;100.00;96320.97;5050073;28;20040;-79
2021/06/24 03:53:44;;;;;;;182.57;13.60;;;;;;;14.52;100.00;96334.28;5046171;28;20048;-79
2021/06/24 03:56:11;;;;;;;10.30;4.22;;;;;;;14.57;100.00;96339.88;5049836;28;20020;-77
2021/06/24 03:58:43;;;;;;;5.53;3.70;;;;;;;14.61;100.00;96343.78;5051298;28;20363;-79
2021/06/24 04:01:11;;;;;;;6.13;4.32;;;;;;;14.51;100.00;96345.88;5049319;28;20104;-79
2021/06/24 04:03:37;;;;;;;6.93;3.75;;;;;;;14.50;100.00;96342.41;5044642;28;20116;-78
2021/06/24 04:06:06;;;;;;;6.43;4.10;;;;;;;14.58;100.00;96344.97;5046034;28;20158;-79
2021/06/24 04:08:33;;;;;;;5.60;4.13;;;;;;;14.57;100.00;96345.97;5030594;28;20086;-79
2021/06/24 04:10:59;;;;;;;6.22;3.63;;;;;;;14.60;100.00;96347.44;5028597;28;20061;-79
2021/06/24 04:13:25;;;;;;;7.05;3.53;;;;;;;14.61;100.00;96351.72;5048976;28;20025;-79
2021/06/24 04:15:54;;;;;;;10.82;5.07;;;;;;;14.65;100.00;96336.31;5032130;28;20025;-79
2021/06/24 04:18:21;;;;;;;6.75;3.58;;;;;;;14.79;100.00;96343.44;5046910;28;20029;-78
2021/06/24 04:20:48;;;;;;;4.90;3.20;;;;;;;14.85;100.00;96337.41;5048538;28;20049;-79
2021/06/24 04:23:14;;;;;;;4.97;3.10;;;;;;;14.95;100.00;96330.00;5032134;28;20063;-79
2021/06/24 04:25:54;;;;;;;5.32;3.20;;;;;;;15.08;100.00;96326.69;5049959;28;20078;-78
2021/06/24 04:28:21;;;;;;;5.47;3.60;;;;;;;15.16;100.00;96329.25;5049180;28;20695;-79
2021/06/24 04:31:00;;;;;;;18.15;5.63;;;;;;;15.24;100.00;96331.78;5035066;28;20174;-78
2021/06/24 04:33:28;;;;;;;7.57;3.53;;;;;;;15.33;100.00;96327.22;5030486;28;20557;-80
2021/06/24 04:36:12;;;;;;;6.32;3.55;;;;;;;15.06;100.00;96332.19;5051178;28;20296;-79
2021/06/24 04:38:39;;;;;;;5.47;3.30;;;;;;;14.96;100.00;96333.50;5031456;28;20032;-79
2021/06/24 04:41:06;;;;;;;4.32;2.47;;;;;;;15.12;100.00;96335.09;5031825;28;20394;-79
2021/06/24 04:43:51;;;;;;;8.77;3.97;;;;;;;15.25;100.00;96336.06;5063357;28;20032;-80
2021/06/24 04:46:17;;;;;;;5.30;3.30;;;;;;;15.47;100.00;96333.47;5048241;28;20035;-79
2021/06/24 04:48:43;;;;;;;7.05;3.38;;;;;;;15.54;100.00;96329.06;5040222;28;20028;-80
2021/06/24 04:51:29;;;;;;;6.00;3.22;;;;;;;15.54;100.00;96327.22;5052019;28;20040;-80
2021/06/24 04:53:55;;;;;;;6.03;3.22;;;;;;;15.58;100.00;96343.56;5048131;28;20033;-79
2021/06/24 04:56:25;;;;;;;6.28;3.50;;;;;;;15.79;100.00;96333.03;5049764;28;20529;-80
2021/06/24 04:58:51;;;;;;;4.72;3.20;;;;;;;15.84;100.00;96327.16;5032056;28;20127;-80
2021/06/24 05:01:35;;;;;;;6.82;3.17;;;;;;;15.94;100.00;96326.84;5049309;28;20120;-79
2021/06/24 05:04:19;;;;;;;4.70;3.22;;;;;;;15.87;100.00;96324.13;5048919;28;20063;-79
2021/06/24 05:06:50;;;;;;;6.45;3.55;;;;;;;16.03;100.00;96331.00;5049620;28;20033;-79
2021/06/24 05:09:23;;;;;;;4.93;3.20;;;;;;;16.21;100.00;96325.22;5033094;28;20086;-80
2021/06/24 05:11:48;;;;;;;5.40;3.10;;;;;;;16.26;100.00;96325.47;5053212;28;20028;-79
2021/06/24 05:14:15;;;;;;;7.55;4.07;;;;;;;16.34;100.00;96329.81;5048993;28;20537;-80
2021/06/24 05:16:41;;;;;;;10.07;7.35;;;;;;;16.54;100.00;96332.63;5067171;28;20029;-80
2021/06/24 05:19:08;;;;;;;8.50;3.78;;;;;;;16.56;100.00;96330.56;5047808;28;20056;-79
2021/06/24 05:21:35;;;;;;;5.65;3.13;;;;;;;16.66;100.00;96331.84;5050883;28;20041;-80
2021/06/24 05:24:01;;;;;;;4.63;2.78;;;;;;;16.87;100.00;96328.34;5034389;28;20043;-80
2021/06/24 05:26:26;;;;;;;4.78;2.92;;;;;;;16.77;100.00;96321.72;5049350;28;20131;-81
2021/06/24 05:28:52;;;;;;;7.32;5.45;;;;;;;16.68;100.00;96331.69;5047768;28;20278;-80
2021/06/24 05:31:18;;;;;;;8.77;5.68;;;;;;;16.61;100.00;96326.34;5050703;28;20111;-80
2021/06/24 05:33:44;;;;;;;7.35;3.95;;;;;;;16.73;100.00;96332.75;5037075;28;20123;-80
2021/06/24 05:36:10;;;;;;;4.00;3.13;;;;;;;16.66;100.00;96334.50;5049720;28;20032;-78
2021/06/24 05:38:35;;;;;;;4.50;3.03;;;;;;;16.84;100.00;96336.72;5052279;28;20119;-80
2021/06/24 05:41:01;;;;;;;7.60;2.95;;;;;;;16.79;99.92;96335.66;5060255;28;20029;-79
2021/06/24 05:43:27;;;;;;;5.03;3.67;;;;;;;16.65;99.32;96340.84;5039976;28;20071;-79
2021/06/24 05:45:52;;;;;;;5.68;3.90;;;;;;;16.89;99.15;96341.44;5050268;28;20060;-80
2021/06/24 05:48:18;;;;;;;6.20;4.00;;;;;;;17.05;98.70;96346.41;5041381;28;20031;-80
2021/06/24 05:50:44;;;;;;;6.97;4.10;;;;;;;16.95;98.30;96349.44;5047033;28;20025;-79
2021/06/24 05:53:10;;;;;;;5.90;3.28;;;;;;;17.11;98.57;96352.78;5028772;28;20053;-78
2021/06/24 05:55:51;;;;;;;3.53;2.67;;;;;;;17.20;94.73;96339.16;5028513;28;20048;-79
2021/06/24 05:58:25;;;;;;;4.53;2.45;;;;;;;16.97;96.70;96338.63;5053361;28;20043;-79
2021/06/24 06:00:53;;;;;;;4.55;2.80;;;;;;;17.11;97.25;96327.03;5055119;28;20402;-79
2021/06/24 06:03:21;;;;;;;3.85;2.30;;;;;;;17.30;96.37;96325.47;5040034;28;20020;-79
2021/06/24 06:05:50;;;;;;;8.45;3.25;;;;;;;17.39;96.90;96326.94;5054104;28;20040;-79
2021/06/24 06:08:16;;;;;;;3.72;2.30;;;;;;;17.26;95.62;96328.72;5052116;28;20119;-79
2021/06/24 06:10:43;;;;;;;3.15;2.00;;;;;;;17.26;94.02;96323.41;5035166;28;20161;-79
2021/06/24 06:13:10;;;;;;;3.75;1.90;;;;;;;18.47;87.99;96316.22;5054361;28;20028;-79
2021/06/24 06:15:40;;;;;;;3.10;1.92;;;;;;;18.11;91.82;96324.66;5049547;28;20075;-79
2021/06/24 06:18:13;;;;;;;5.95;2.22;;;;;;;17.84;92.24;96329.09;5040869;28;20128;-79
2021/06/24 06:20:39;;;;;;;4.22;2.03;;;;;;;18.04;90.40;96326.47;5044070;28;20519;-79
2021/06/24 06:23:05;;;;;;;3.60;2.10;;;;;;;17.87;90.55;96326.03;5051109;28;20065;-79
2021/06/24 06:25:31;;;;;;;4.43;2.50;;;;;;;18.01;91.74;96329.56;5052198;28;20053;-79
2021/06/24 06:27:56;;;;;;;3.35;2.20;;;;;;;18.00;91.04;96333.22;5052812;28;20776;-79
2021/06/24 06:30:23;;;;;;;4.70;2.45;;;;;;;17.66;89.96;96335.81;5051172;28;20102;-79
2021/06/24 06:32:49;;;;;;;3.47;1.92;;;;;;;17.62;92.62;96334.56;5049982;28;20059;-79
2021/06/24 06:35:14;;;;;;;3.72;2.13;;;;;;;17.46;92.23;96340.25;5052220;28;20596;-79
2021/06/24 06:37:40;;;;;;;4.40;1.80;;;;;;;17.52;91.83;96343.94;5049539;28;20120;-79
2021/06/24 06:40:06;;;;;;;3.13;1.80;;;;;;;17.62;90.84;96342.53;5050256;28;20033;-80
2021/06/24 06:42:32;;;;;;;2.72;1.75;;;;;;;17.74;89.48;96331.31;5050356;28;20025;-79
2021/06/24 06:44:58;;;;;;;3.78;1.60;;;;;;;17.69;90.21;96329.25;5049659;28;20042;-79
2021/06/24 06:47:24;;;;;;;3.72;1.70;;;;;;;17.60;90.28;96330.47;5033508;28;20394;-79
2021/06/24 06:49:49;;;;;;;5.03;1.77;;;;;;;17.51;90.48;96337.00;5049987;28;20029;-79
2021/06/24 06:52:15;;;;;;;2.65;1.77;;;;;;;18.07;88.11;96342.84;5046383;28;20080;-80
2021/06/24 06:54:41;;;;;;;3.38;1.80;;;;;;;18.46;87.37;96327.91;5047401;28;20082;-80
2021/06/24 06:57:07;;;;;;;3.95;1.70;;;;;;;19.67;77.65;96332.69;5050282;28;20032;-80
2021/06/24 06:59:35;;;;;;;2.72;1.67;;;;;;;20.12;78.83;96323.78;5051285;28;20029;-79
2021/06/24 07:02:00;;;;;;;2.67;1.40;;;;;;;20.90;73.08;96326.81;5052445;28;20180;-79
2021/06/24 07:04:26;;;;;;;3.65;1.42;;;;;;;22.00;68.41;96319.66;5051309;28;20108;-80
2021/06/24 07:06:52;;;;;;;2.80;1.15;;;;;;;22.56;65.12;96311.16;5050994;28;20037;-80
2021/06/24 07:09:19;;;;;;;4.03;0.90;;;;;;;23.08;64.62;96321.19;5050325;28;20525;-80
2021/06/24 07:11:44;;;;;;;1.40;1.00;;;;;;;23.79;60.82;96318.31;5050723;28;20036;-80
2021/06/24 07:14:10;;;;;;;2.85;1.25;;;;;;;24.56;56.66;96313.19;5047670;28;20033;-80
2021/06/24 07:16:36;;;;;;;1.98;1.15;;;;;;;24.21;59.41;96319.59;5050649;28;20583;-80
2021/06/24 07:19:02;;;;;;;1.98;1.10;;;;;;;24.55;56.04;96325.00;5032143;28;20028;-81
2021/06/24 07:21:28;;;;;;;1.63;1.00;;;;;;;24.81;54.86;96317.31;5051400;28;20071;-80
2021/06/24 07:23:53;;;;;;;2.53;1.10;;;;;;;24.40;58.49;96316.66;5050158;28;20923;-80
2021/06/24 07:26:19;;;;;;;2.85;1.13;;;;;;;23.78;60.33;96322.06;5050610;28;20056;-80
2021/06/24 07:28:45;;;;;;;1.92;1.23;;;;;;;23.63;60.44;96325.22;5065319;28;20028;-80
2021/06/24 07:31:11;;;;;;;1.98;1.00;;;;;;;23.74;61.25;96321.69;5050874;28;20031;-80
2021/06/24 07:33:36;;;;;;;2.72;1.10;;;;;;;22.38;64.08;96327.34;5050982;28;20029;-80
2021/06/24 07:36:03;;;;;;;2.55;1.40;;;;;;;21.60;66.91;96321.06;5049383;28;20056;-80
2021/06/24 07:38:29;;;;;;;2.15;1.08;;;;;;;21.89;67.76;96316.72;5045439;28;20028;-79
2021/06/24 07:40:56;;;;;;;2.42;1.20;;;;;;;21.78;66.67;96325.56;5050259;28;20028;-80
2021/06/24 07:43:22;;;;;;;2.75;1.13;;;;;;;21.95;66.14;96316.88;5048816;28;20056;-80
2021/06/24 07:45:48;;;;;;;2.05;1.13;;;;;;;23.30;59.68;96307.94;5047880;28;20439;-80
2021/06/24 07:48:14;;;;;;;3.65;1.38;;;;;;;24.08;56.40;96302.97;5048258;28;20063;-80
2021/06/24 07:50:40;;;;;;;0.70;0.70;;;;;;;24.80;55.54;96304.94;5051368;28;20025;-80
2021/06/24 07:53:06;;;;;;;1.52;1.00;;;;;;;25.55;52.34;96290.84;5043687;28;20394;-80
2021/06/24 07:55:35;;;;;;;1.80;0.90;;;;;;;25.89;51.31;96297.91;5054318;28;20021;-80
2021/06/24 07:58:06;;;;;;;1.17;0.95;;;;;;;26.72;48.34;96290.25;5057682;28;21258;-81
2021/06/24 08:00:33;;;;;;;2.05;1.08;;;;;;;25.30;52.46;96295.91;5031171;28;20031;-81
2021/06/24 08:02:59;;;;;;;1.90;0.85;;;;;;;26.14;49.64;96284.69;5025641;28;20037;-81
2021/06/24 08:05:26;;;;;;;1.73;1.10;;;;;;;25.57;50.36;96293.25;5045354;28;20041;-81
2021/06/24 08:07:52;;;;;;;1.85;1.13;;;;;;;25.15;53.21;96293.84;5044977;28;20056;-81
2021/06/24 08:10:19;;;;;;;2.22;1.10;;;;;;;24.35;54.29;96290.53;5058204;28;20047;-80
2021/06/24 08:12:46;;;;;;;2.08;1.30;;;;;;;25.16;51.64;96293.59;5059981;28;20031;-80
2021/06/24 08:15:15;;;;;;;2.65;1.50;;;;;;;25.51;52.42;96283.50;5054764;28;20490;-81
2021/06/24 08:17:42;;;;;;;1.73;0.95;;;;;;;26.98;48.30;96291.22;5058525;28;20021;-80
2021/06/24 08:20:09;;;;;;;4.28;2.60;;;;;;;25.76;51.15;96285.66;5051155;28;20029;-80
2021/06/24 08:22:36;;;;;;;2.25;1.27;;;;;;;25.32;50.86;96299.19;5057555;28;20052;-81
2021/06/24 08:25:02;;;;;;;1.52;1.00;;;;;;;26.82;48.39;96298.41;5049931;28;20033;-80
2021/06/24 08:27:28;;;;;;;1.02;0.90;;;;;;;24.75;52.69;96302.16;5039543;28;20021;-80
2021/06/24 08:29:56;;;;;;;3.55;0.90;;;;;;;24.21;55.03;96305.31;5056601;28;20104;-80
2021/06/24 08:32:22;;;;;;;2.08;1.00;;;;;;;25.08;54.33;96302.09;5053732;28;20021;-81
2021/06/24 08:34:49;;;;;;;1.25;0.70;;;;;;;25.22;52.71;96304.41;5048810;28;20028;-80
2021/06/24 08:37:15;;;;;;;1.88;1.00;;;;;;;24.93;54.35;96301.88;5045973;28;20410;-79
2021/06/24 08:39:43;;;;;;;2.55;0.90;;;;;;;26.82;46.66;96303.81;5045855;28;20060;-82
2021/06/24 08:42:09;;;;;;;2.25;1.10;;;;;;;25.73;47.60;96313.09;5022758;28;20017;-80
2021/06/24 08:44:34;;;;;;;0.93;0.82;;;;;;;27.23;44.20;96306.75;5045569;28;20041;-80
2021/06/24 08:47:01;;;;;;;1.10;0.80;;;;;;;28.59;40.02;96303.81;5045871;28;20102;-80
2021/06/24 08:49:27;;;;;;;1.38;0.80;;;;;;;27.63;42.95;96313.38;5046229;28;20411;-80
2021/06/24 08:51:58;;;;;;;2.15;0.63;;;;;;;27.04;44.85;96317.97;5046217;28;20025;-80
2021/06/24 08:54:24;;;;;;;1.42;1.00;;;;;;;26.82;47.71;96314.59;5045421;28;20025;-81
2021/06/24 08:56:50;;;;;;;1.60;1.02;;;;;;;26.13;48.87;96315.41;5045156;28;20044;-80
2021/06/24 08:59:17;;;;;;;1.20;0.93;;;;;;;25.43;51.27;96327.03;5045856;28;20075;-83
2021/06/24 09:01:56;;;;;;;2.90;0.93;;;;;;;25.81;50.30;96316.16;5045377;28;20017;-80
2021/06/24 09:04:25;;;;;;;2.15;1.10;;;;;;;25.32;51.05;96315.34;5046130;28;20056;-78
2021/06/24 09:06:52;;;;;;;2.22;1.15;;;;;;;25.63;50.20;96320.00;5043495;28;20484;-79
2021/06/24 09:09:32;;;;;;;2.05;1.00;;;;;;;25.86;50.62;96324.31;5044662;28;20119;-78
2021/06/24 09:12:06;;;;;;;2.17;1.02;;;;;;;26.34;45.42;96329.88;5046762;28;20032;-78
2021/06/24 09:14:48;;;;;;;1.67;0.90;;;;;;;24.05;53.62;96346.47;5043728;28;20653;-78
2021/06/24 09:17:38;;;;;;;2.40;0.90;;;;;;;24.66;50.82;96336.72;5060567;28;20032;-78
2021/06/24 09:20:24;;;;;;;1.73;0.90;;;;;;;24.54;52.44;96344.88;5041309;28;20505;-78
2021/06/24 09:23:23;;;;;;;1.83;1.00;;;;;;;23.94;54.64;96356.19;5038710;28;20056;-78
2021/06/24 09:26:07;;;;;;;1.27;0.82;;;;;;;23.41;57.76;96358.09;5028144;28;20025;-78
2021/06/24 09:28:51;;;;;;;1.67;0.88;;;;;;;24.74;52.84;96357.81;5036927;28;20111;-80
2021/06/24 09:31:25;;;;;;;2.47;1.20;;;;;;;24.86;53.08;96352.34;5045266;28;20036;-78
2021/06/24 09:33:52;;;;;;;2.20;1.10;;;;;;;23.92;54.00;96352.94;5057040;28;20033;-77
2021/06/24 09:36:32;;;;;;;1.30;1.00;;;;;;;23.97;56.07;96353.00;5051584;28;20090;-78
2021/06/24 09:38:58;;;;;;;2.25;0.82;;;;;;;24.79;50.17;96354.41;5046741;28;20069;-76
2021/06/24 09:41:24;;;;;;;2.28;1.00;;;;;;;24.82;50.62;96356.59;5050824;28;20021;-78
2021/06/24 09:43:50;;;;;;;2.47;1.45;;;;;;;26.70;48.77;96349.06;5034689;28;20132;-78
2021/06/24 09:46:23;;;;;;;1.38;0.90;;;;;;;26.34;48.97;96349.56;5051439;28;20044;-78
2021/06/24 09:49:01;;;;;;;2.35;0.90;;;;;;;26.93;46.84;96337.91;5049216;28;20036;-78
2021/06/24 09:51:31;;;;;;;1.33;0.80;;;;;;;27.85;44.11;96348.34;5051439;28;20568;-78
2021/06/24 09:54:06;;;;;;;1.20;0.80;;;;;;;27.09;44.79;96343.38;5053305;28;20100;-78
2021/06/24 09:56:33;;;;;;;2.08;0.73;;;;;;;26.86;47.07;96348.09;5048670;28;20560;-78
2021/06/24 09:59:04;;;;;;;1.92;1.15;;;;;;;27.00;45.90;96346.56;5045861;28;20549;-79
2021/06/24 10:01:32;;;;;;;7.50;4.00;;;;;;;26.99;45.67;96344.94;5046006;28;20492;-78
2021/06/24 10:04:01;;;;;;;1.58;0.88;;;;;;;26.25;45.54;96350.28;5050368;28;20036;-79
2021/06/24 10:06:27;;;;;;;0.70;0.68;;;;;;;26.58;46.16;96351.13;5050824;28;20087;-78
2021/06/24 10:08:55;;;;;;;1.13;0.60;;;;;;;25.73;47.84;96358.91;5050262;28;20020;-78
2021/06/24 10:11:22;;;;;;;0.95;0.70;;;;;;;25.07;47.12;96362.34;5050314;28;20530;-79
2021/06/24 10:13:49;;;;;;;1.35;0.75;;;;;;;25.44;46.08;96359.09;5043413;28;20059;-78
2021/06/24 10:16:16;;;;;;;1.88;0.80;;;;;;;25.20;48.28;96366.59;5048303;28;20528;-78
2021/06/24 10:18:47;;;;;;;0.73;0.60;;;;;;;25.10;48.63;96359.16;5023427;28;20030;-78
2021/06/24 10:21:17;;;;;;;4.60;0.90;;;;;;;25.04;46.06;96354.75;5049075;28;20028;-77
2021/06/24 10:23:51;;;;;;;0.65;0.57;;;;;;;25.93;44.35;96359.16;5046752;28;20028;-78
2021/06/24 10:26:19;;;;;;;0.65;0.50;;;;;;;25.36;47.61;96354.16;5044095;28;20030;-79
2021/06/24 10:28:45;;;;;;;1.10;0.80;;;;;;;26.56;44.74;96344.13;5050929;28;20056;-79
2021/06/24 10:31:36;;;;;;;3.30;1.25;;;;;;;26.84;44.04;96352.13;5041274;28;20100;-79
2021/06/24 10:34:03;;;;;;;0.65;0.63;;;;;;;28.17;40.38;96340.03;5042439;28;20056;-78
2021/06/24 10:36:31;;;;;;;1.00;0.60;;;;;;;28.56;39.79;96336.81;5052537;28;20124;-78
2021/06/24 10:38:58;;;;;;;1.90;0.60;;;;;;;28.99;38.65;96332.69;5051195;28;20037;-78
2021/06/24 10:41:24;;;;;;;1.20;0.70;;;;;;;30.68;38.16;96332.66;5052009;28;20096;-81
2021/06/24 10:43:54;;;;;;;0.85;0.75;;;;;;;30.28;38.90;96331.91;5046578;28;20044;-79
2021/06/24 10:46:24;;;;;;;1.10;0.95;;;;;;;32.04;34.60;96335.25;5054791;28;20064;-79
2021/06/24 10:48:51;;;;;;;3.00;0.98;;;;;;;31.90;33.94;96340.63;5050194;28;20444;-79
2021/06/24 10:51:17;;;;;;;2.10;1.13;;;;;;;30.64;37.42;96345.19;5031834;28;20048;-80
2021/06/24 10:53:49;;;;;;;4.82;3.58;;;;;;;29.08;39.87;96338.41;5049364;28;20043;-78
2021/06/24 10:56:23;;;;;;;1.10;0.77;;;;;;;29.03;37.10;96331.09;5066173;28;20067;-79
2021/06/24 10:58:50;;;;;;;1.20;0.80;;;;;;;27.49;41.76;96330.06;5048305;28;20107;-78
2021/06/24 11:01:18;;;;;;;3.13;1.20;;;;;;;26.40;44.10;96333.44;5048352;28;20111;-78
2021/06/24 11:03:45;;;;;;;1.42;1.00;;;;;;;27.14;45.75;96327.25;5047847;28;20044;-78
2021/06/24 11:06:12;;;;;;;1.23;1.08;;;;;;;27.25;45.97;96329.72;5047278;28;20075;-78
2021/06/24 11:08:42;;;;;;;1.92;0.80;;;;;;;26.69;44.46;96331.25;5047047;28;20044;-78
2021/06/24 11:11:12;;;;;;;1.63;1.00;;;;;;;26.27;46.97;96340.06;5047623;28;20079;-77
2021/06/24 11:13:42;;;;;;;2.85;1.25;;;;;;;26.77;46.52;96330.78;5040174;28;20032;-77
2021/06/24 11:16:27;;;;;;;1.95;0.90;;;;;;;25.68;49.03;96331.88;5048883;28;20641;-78
2021/06/24 11:18:56;;;;;;;1.15;0.90;;;;;;;26.04;48.02;96335.81;5048619;28;20156;-78
2021/06/24 11:21:42;;;;;;;1.95;1.13;;;;;;;23.83;52.42;96333.69;5056696;28;20799;-78
2021/06/24 11:24:08;;;;;;;1.52;0.90;;;;;;;25.17;50.86;96332.91;5038325;28;20025;-77
2021/06/24 11:26:42;;;;;;;1.98;1.00;;;;;;;24.78;51.72;96333.94;5047875;28;20078;-78
2021/06/24 11:29:11;;;;;;;4.50;0.90;;;;;;;24.29;53.75;96329.13;5029800;28;20040;-77
2021/06/24 11:31:59;;;;;;;1.30;0.95;;;;;;;24.12;52.93;96326.44;5044719;28;20024;-78
2021/06/24 11:34:54;;;;;;;1.75;1.05;;;;;;;24.28;52.03;96335.56;5043168;28;20037;-78
2021/06/24 11:37:34;;;;;;;2.20;1.10;;;;;;;23.58;54.28;96350.13;5053976;28;20029;-77
2021/06/24 11:40:05;;;;;;;2.25;1.10;;;;;;;23.67;54.92;96351.34;5045506;28;20025;-78